sensor_id;sensor_type;location;lat;lon;timestamp;P1;durP1;ratioP1;P2;durP2;ratioP2
20830;SDS011;10576;53.556;9.868;2022-07-29T00:02:12;3.63;;;2.10;;
20830;SDS011;10576;53.556;9.868;2022-07-29T00:04:38;3.22;;;1.95;;
20830;SDS011;10576;53.556;9.868;2022-07-29T00:07:03;3.75;;;2.10;;
20830;SDS011;10576;53.556;9.868;2022-07-29T00:09:30;5.03;;;2.00;;
20830;SDS011;10576;53.556;9.868;2022-07-29T00:11:56;4.82;;;2.13;;
20830;SDS011;10576;53.556;9.868;2022-07-29T00:14:25;5.70;;;2.20;;
20830;SDS011;10576;53.556;9.868;2022-07-29T00:16:51;4.30;;;2.20;;
20830;SDS011;10576;53.556;9.868;2022-07-29T00:19:17;3.45;;;2.35;;
20830;SDS011;10576;53.556;9.868;2022-07-29T00:21:43;2.83;;;2.20;;
20830;SDS011;10576;53.556;9.868;2022-07-29T00:24:08;6.30;;;2.33;;
20830;SDS011;10576;53.556;9.868;2022-07-29T00:26:34;4.18;;;2.30;;
20830;SDS011;10576;53.556;9.868;2022-07-29T00:29:01;2.87;;;2.20;;
20830;SDS011;10576;53.556;9.868;2022-07-29T00:31:28;6.03;;;2.50;;
20830;SDS011;10576;53.556;9.868;2022-07-29T00:33:54;4.40;;;2.20;;
20830;SDS011;10576;53.556;9.868;2022-07-29T00:36:20;3.85;;;2.13;;
20830;SDS011;10576;53.556;9.868;2022-07-29T00:38:49;4.35;;;2.30;;
20830;SDS011;10576;53.556;9.868;2022-07-29T00:41:16;3.92;;;2.20;;
20830;SDS011;10576;53.556;9.868;2022-07-29T00:43:43;4.10;;;2.30;;
20830;SDS011;10576;53.556;9.868;2022-07-29T00:46:09;3.22;;;2.30;;
20830;SDS011;10576;53.556;9.868;2022-07-29T00:48:35;3.58;;;2.30;;
20830;SDS011;10576;53.556;9.868;2022-07-29T00:51:01;4.15;;;2.25;;
20830;SDS011;10576;53.556;9.868;2022-07-29T00:53:28;2.40;;;2.10;;
20830;SDS011;10576;53.556;9.868;2022-07-29T00:55:54;3.35;;;2.20;;
20830;SDS011;10576;53.556;9.868;2022-07-29T00:58:21;3.17;;;2.10;;
20830;SDS011;10576;53.556;9.868;2022-07-29T01:00:47;5.95;;;2.30;;
20830;SDS011;10576;53.556;9.868;2022-07-29T01:03:13;4.05;;;2.30;;
20830;SDS011;10576;53.556;9.868;2022-07-29T01:05:39;3.38;;;1.98;;
20830;SDS011;10576;53.556;9.868;2022-07-29T01:08:08;3.22;;;2.00;;
20830;SDS011;10576;53.556;9.868;2022-07-29T01:10:34;3.47;;;2.10;;
20830;SDS011;10576;53.556;9.868;2022-07-29T01:13:03;4.07;;;2.25;;
20830;SDS011;10576;53.556;9.868;2022-07-29T01:15:29;3.70;;;2.20;;
20830;SDS011;10576;53.556;9.868;2022-07-29T01:18:11;5.13;;;2.20;;
20830;SDS011;10576;53.556;9.868;2022-07-29T01:23:40;3.63;;;2.15;;
20830;SDS011;10576;53.556;9.868;2022-07-29T01:29:30;4.93;;;2.40;;
20830;SDS011;10576;53.556;9.868;2022-07-29T01:32:02;3.17;;;2.35;;
20830;SDS011;10576;53.556;9.868;2022-07-29T01:34:48;3.70;;;2.43;;
20830;SDS011;10576;53.556;9.868;2022-07-29T01:40:20;4.13;;;2.53;;
20830;SDS011;10576;53.556;9.868;2022-07-29T01:42:50;4.28;;;2.50;;
20830;SDS011;10576;53.556;9.868;2022-07-29T01:45:34;2.72;;;2.30;;
20830;SDS011;10576;53.556;9.868;2022-07-29T01:48:13;3.78;;;2.40;;
20830;SDS011;10576;53.556;9.868;2022-07-29T01:50:42;4.65;;;2.75;;
20830;SDS011;10576;53.556;9.868;2022-07-29T01:53:21;5.13;;;2.50;;
20830;SDS011;10576;53.556;9.868;2022-07-29T01:56:01;4.45;;;2.78;;
20830;SDS011;10576;53.556;9.868;2022-07-29T01:58:28;3.83;;;2.70;;
20830;SDS011;10576;53.556;9.868;2022-07-29T02:00:57;4.00;;;2.53;;
20830;SDS011;10576;53.556;9.868;2022-07-29T02:03:24;4.15;;;2.50;;
20830;SDS011;10576;53.556;9.868;2022-07-29T02:05:51;5.70;;;2.50;;
20830;SDS011;10576;53.556;9.868;2022-07-29T02:08:18;4.65;;;2.58;;
20830;SDS011;10576;53.556;9.868;2022-07-29T02:10:46;3.65;;;2.80;;
20830;SDS011;10576;53.556;9.868;2022-07-29T02:13:14;4.82;;;2.72;;
20830;SDS011;10576;53.556;9.868;2022-07-29T02:15:42;5.50;;;2.80;;
20830;SDS011;10576;53.556;9.868;2022-07-29T02:18:11;5.77;;;2.80;;
20830;SDS011;10576;53.556;9.868;2022-07-29T02:20:41;4.28;;;2.80;;
20830;SDS011;10576;53.556;9.868;2022-07-29T02:23:10;4.28;;;2.78;;
20830;SDS011;10576;53.556;9.868;2022-07-29T02:25:37;6.38;;;2.95;;
20830;SDS011;10576;53.556;9.868;2022-07-29T02:28:06;3.53;;;2.67;;
20830;SDS011;10576;53.556;9.868;2022-07-29T02:30:32;4.45;;;2.55;;
20830;SDS011;10576;53.556;9.868;2022-07-29T02:33:01;5.80;;;2.80;;
20830;SDS011;10576;53.556;9.868;2022-07-29T02:35:29;4.82;;;2.83;;
20830;SDS011;10576;53.556;9.868;2022-07-29T02:37:54;5.72;;;2.85;;
20830;SDS011;10576;53.556;9.868;2022-07-29T02:40:39;5.70;;;3.03;;
20830;SDS011;10576;53.556;9.868;2022-07-29T02:43:08;5.40;;;2.63;;
20830;SDS011;10576;53.556;9.868;2022-07-29T02:45:35;4.47;;;2.83;;
20830;SDS011;10576;53.556;9.868;2022-07-29T02:48:04;4.95;;;2.78;;
20830;SDS011;10576;53.556;9.868;2022-07-29T02:50:34;4.22;;;2.72;;
20830;SDS011;10576;53.556;9.868;2022-07-29T02:53:05;5.63;;;2.63;;
20830;SDS011;10576;53.556;9.868;2022-07-29T02:55:42;4.90;;;2.60;;
20830;SDS011;10576;53.556;9.868;2022-07-29T03:00:46;5.28;;;2.88;;
20830;SDS011;10576;53.556;9.868;2022-07-29T03:03:13;4.95;;;2.70;;
20830;SDS011;10576;53.556;9.868;2022-07-29T03:05:42;5.63;;;2.88;;
20830;SDS011;10576;53.556;9.868;2022-07-29T03:08:09;4.50;;;2.70;;
20830;SDS011;10576;53.556;9.868;2022-07-29T03:10:36;5.40;;;2.67;;
20830;SDS011;10576;53.556;9.868;2022-07-29T03:13:04;3.35;;;2.60;;
20830;SDS011;10576;53.556;9.868;2022-07-29T03:15:31;6.38;;;3.00;;
20830;SDS011;10576;53.556;9.868;2022-07-29T03:17:57;5.35;;;2.80;;
20830;SDS011;10576;53.556;9.868;2022-07-29T03:20:24;5.35;;;2.72;;
20830;SDS011;10576;53.556;9.868;2022-07-29T03:22:50;5.55;;;3.00;;
20830;SDS011;10576;53.556;9.868;2022-07-29T03:25:17;6.15;;;2.70;;
20830;SDS011;10576;53.556;9.868;2022-07-29T03:27:44;4.28;;;2.47;;
20830;SDS011;10576;53.556;9.868;2022-07-29T03:30:11;4.65;;;2.78;;
20830;SDS011;10576;53.556;9.868;2022-07-29T03:32:38;4.70;;;2.72;;
20830;SDS011;10576;53.556;9.868;2022-07-29T03:35:04;4.32;;;2.72;;
20830;SDS011;10576;53.556;9.868;2022-07-29T03:37:31;5.50;;;3.00;;
20830;SDS011;10576;53.556;9.868;2022-07-29T03:39:58;4.95;;;2.55;;
20830;SDS011;10576;53.556;9.868;2022-07-29T03:42:25;5.22;;;2.60;;
20830;SDS011;10576;53.556;9.868;2022-07-29T03:44:55;4.38;;;2.67;;
20830;SDS011;10576;53.556;9.868;2022-07-29T03:47:23;3.03;;;2.60;;
20830;SDS011;10576;53.556;9.868;2022-07-29T03:49:52;4.68;;;2.78;;
20830;SDS011;10576;53.556;9.868;2022-07-29T03:52:21;4.38;;;2.67;;
20830;SDS011;10576;53.556;9.868;2022-07-29T03:54:47;4.93;;;2.70;;
20830;SDS011;10576;53.556;9.868;2022-07-29T03:57:14;4.68;;;2.70;;
20830;SDS011;10576;53.556;9.868;2022-07-29T03:59:41;4.95;;;2.90;;
20830;SDS011;10576;53.556;9.868;2022-07-29T04:02:08;4.43;;;2.60;;
20830;SDS011;10576;53.556;9.868;2022-07-29T04:04:36;5.88;;;2.70;;
20830;SDS011;10576;53.556;9.868;2022-07-29T04:07:02;5.85;;;3.03;;
20830;SDS011;10576;53.556;9.868;2022-07-29T04:09:28;3.20;;;2.85;;
20830;SDS011;10576;53.556;9.868;2022-07-29T04:11:54;4.05;;;2.85;;
20830;SDS011;10576;53.556;9.868;2022-07-29T04:14:20;3.78;;;2.58;;
20830;SDS011;10576;53.556;9.868;2022-07-29T04:16:46;3.83;;;2.90;;
20830;SDS011;10576;53.556;9.868;2022-07-29T04:19:12;5.65;;;2.90;;
20830;SDS011;10576;53.556;9.868;2022-07-29T04:21:40;7.28;;;3.00;;
20830;SDS011;10576;53.556;9.868;2022-07-29T04:24:06;6.43;;;2.90;;
20830;SDS011;10576;53.556;9.868;2022-07-29T04:26:33;4.88;;;3.00;;
20830;SDS011;10576;53.556;9.868;2022-07-29T04:28:59;3.63;;;2.90;;
20830;SDS011;10576;53.556;9.868;2022-07-29T04:31:25;5.13;;;2.90;;
20830;SDS011;10576;53.556;9.868;2022-07-29T04:33:51;4.85;;;3.25;;
20830;SDS011;10576;53.556;9.868;2022-07-29T04:36:17;5.20;;;2.80;;
20830;SDS011;10576;53.556;9.868;2022-07-29T04:38:42;5.97;;;2.70;;
20830;SDS011;10576;53.556;9.868;2022-07-29T04:41:08;5.60;;;3.13;;
20830;SDS011;10576;53.556;9.868;2022-07-29T04:43:34;6.35;;;2.83;;
20830;SDS011;10576;53.556;9.868;2022-07-29T04:46:01;4.82;;;3.03;;
20830;SDS011;10576;53.556;9.868;2022-07-29T04:48:27;5.97;;;3.00;;
20830;SDS011;10576;53.556;9.868;2022-07-29T04:50:53;6.13;;;3.10;;
20830;SDS011;10576;53.556;9.868;2022-07-29T04:53:19;4.10;;;2.97;;
20830;SDS011;10576;53.556;9.868;2022-07-29T04:55:45;6.73;;;3.20;;
20830;SDS011;10576;53.556;9.868;2022-07-29T04:58:11;5.00;;;2.73;;
20830;SDS011;10576;53.556;9.868;2022-07-29T05:00:36;7.43;;;3.17;;
20830;SDS011;10576;53.556;9.868;2022-07-29T05:03:02;7.15;;;3.10;;
20830;SDS011;10576;53.556;9.868;2022-07-29T05:05:28;5.38;;;2.90;;
20830;SDS011;10576;53.556;9.868;2022-07-29T05:07:54;5.03;;;2.90;;
20830;SDS011;10576;53.556;9.868;2022-07-29T05:10:20;5.07;;;2.97;;
20830;SDS011;10576;53.556;9.868;2022-07-29T05:12:46;4.57;;;3.00;;
20830;SDS011;10576;53.556;9.868;2022-07-29T05:15:12;7.80;;;3.40;;
20830;SDS011;10576;53.556;9.868;2022-07-29T05:17:38;4.63;;;3.05;;
20830;SDS011;10576;53.556;9.868;2022-07-29T05:20:04;7.20;;;2.95;;
20830;SDS011;10576;53.556;9.868;2022-07-29T05:22:30;5.50;;;2.90;;
20830;SDS011;10576;53.556;9.868;2022-07-29T05:24:56;3.87;;;3.07;;
20830;SDS011;10576;53.556;9.868;2022-07-29T05:27:22;5.97;;;3.10;;
20830;SDS011;10576;53.556;9.868;2022-07-29T05:29:47;5.35;;;3.10;;
20830;SDS011;10576;53.556;9.868;2022-07-29T05:32:13;5.65;;;3.00;;
20830;SDS011;10576;53.556;9.868;2022-07-29T05:34:39;6.00;;;2.90;;
20830;SDS011;10576;53.556;9.868;2022-07-29T05:37:05;5.43;;;2.70;;
20830;SDS011;10576;53.556;9.868;2022-07-29T05:39:31;5.00;;;3.20;;
20830;SDS011;10576;53.556;9.868;2022-07-29T05:41:57;5.60;;;3.20;;
20830;SDS011;10576;53.556;9.868;2022-07-29T05:44:23;4.53;;;2.80;;
20830;SDS011;10576;53.556;9.868;2022-07-29T05:46:48;7.40;;;3.05;;
20830;SDS011;10576;53.556;9.868;2022-07-29T05:49:14;5.53;;;2.80;;
20830;SDS011;10576;53.556;9.868;2022-07-29T05:51:40;6.00;;;3.17;;
20830;SDS011;10576;53.556;9.868;2022-07-29T05:54:05;5.80;;;3.17;;
20830;SDS011;10576;53.556;9.868;2022-07-29T05:56:31;7.27;;;3.33;;
20830;SDS011;10576;53.556;9.868;2022-07-29T05:59:00;5.20;;;3.03;;
20830;SDS011;10576;53.556;9.868;2022-07-29T06:01:26;5.38;;;3.28;;
20830;SDS011;10576;53.556;9.868;2022-07-29T06:03:52;4.68;;;2.85;;
20830;SDS011;10576;53.556;9.868;2022-07-29T06:06:17;4.68;;;2.78;;
20830;SDS011;10576;53.556;9.868;2022-07-29T06:08:43;5.55;;;3.00;;
20830;SDS011;10576;53.556;9.868;2022-07-29T06:11:09;4.60;;;3.00;;
20830;SDS011;10576;53.556;9.868;2022-07-29T06:13:34;8.00;;;3.20;;
20830;SDS011;10576;53.556;9.868;2022-07-29T06:16:00;6.43;;;3.07;;
20830;SDS011;10576;53.556;9.868;2022-07-29T06:18:26;4.37;;;3.10;;
20830;SDS011;10576;53.556;9.868;2022-07-29T06:20:52;4.87;;;3.03;;
20830;SDS011;10576;53.556;9.868;2022-07-29T06:23:19;4.85;;;2.90;;
20830;SDS011;10576;53.556;9.868;2022-07-29T06:25:45;8.25;;;3.10;;
20830;SDS011;10576;53.556;9.868;2022-07-29T06:28:11;5.80;;;3.25;;
20830;SDS011;10576;53.556;9.868;2022-07-29T06:30:37;6.40;;;2.90;;
20830;SDS011;10576;53.556;9.868;2022-07-29T06:33:04;5.47;;;3.03;;
20830;SDS011;10576;53.556;9.868;2022-07-29T06:35:30;4.60;;;2.95;;
20830;SDS011;10576;53.556;9.868;2022-07-29T06:37:58;6.03;;;3.17;;
20830;SDS011;10576;53.556;9.868;2022-07-29T06:40:23;4.32;;;2.80;;
20830;SDS011;10576;53.556;9.868;2022-07-29T06:43:07;4.28;;;2.92;;
20830;SDS011;10576;53.556;9.868;2022-07-29T06:45:33;6.80;;;3.20;;
20830;SDS011;10576;53.556;9.868;2022-07-29T06:47:59;6.97;;;3.00;;
20830;SDS011;10576;53.556;9.868;2022-07-29T06:50:25;5.97;;;2.80;;
20830;SDS011;10576;53.556;9.868;2022-07-29T06:52:51;6.32;;;3.03;;
20830;SDS011;10576;53.556;9.868;2022-07-29T06:55:17;6.10;;;2.92;;
20830;SDS011;10576;53.556;9.868;2022-07-29T06:57:44;5.60;;;3.00;;
20830;SDS011;10576;53.556;9.868;2022-07-29T07:00:11;4.88;;;2.95;;
20830;SDS011;10576;53.556;9.868;2022-07-29T07:02:38;4.90;;;3.05;;
20830;SDS011;10576;53.556;9.868;2022-07-29T07:05:04;6.03;;;3.10;;
20830;SDS011;10576;53.556;9.868;2022-07-29T07:07:30;6.95;;;2.72;;
20830;SDS011;10576;53.556;9.868;2022-07-29T07:09:56;4.80;;;2.90;;
20830;SDS011;10576;53.556;9.868;2022-07-29T07:12:22;9.40;;;3.20;;
20830;SDS011;10576;53.556;9.868;2022-07-29T07:14:48;7.00;;;3.20;;
20830;SDS011;10576;53.556;9.868;2022-07-29T07:17:13;6.77;;;3.03;;
20830;SDS011;10576;53.556;9.868;2022-07-29T07:19:39;7.17;;;3.00;;
20830;SDS011;10576;53.556;9.868;2022-07-29T07:22:05;6.00;;;3.00;;
20830;SDS011;10576;53.556;9.868;2022-07-29T07:24:30;3.95;;;2.92;;
20830;SDS011;10576;53.556;9.868;2022-07-29T07:26:56;6.78;;;3.10;;
20830;SDS011;10576;53.556;9.868;2022-07-29T07:29:22;5.55;;;3.20;;
20830;SDS011;10576;53.556;9.868;2022-07-29T07:31:48;6.25;;;3.28;;
20830;SDS011;10576;53.556;9.868;2022-07-29T07:34:13;6.47;;;3.17;;
20830;SDS011;10576;53.556;9.868;2022-07-29T07:36:39;5.25;;;2.92;;
20830;SDS011;10576;53.556;9.868;2022-07-29T07:39:05;5.03;;;2.80;;
20830;SDS011;10576;53.556;9.868;2022-07-29T07:41:31;3.92;;;3.00;;
20830;SDS011;10576;53.556;9.868;2022-07-29T07:43:56;4.35;;;3.05;;
20830;SDS011;10576;53.556;9.868;2022-07-29T07:46:22;5.43;;;3.00;;
20830;SDS011;10576;53.556;9.868;2022-07-29T07:48:48;5.70;;;3.10;;
20830;SDS011;10576;53.556;9.868;2022-07-29T07:51:13;5.03;;;3.00;;
20830;SDS011;10576;53.556;9.868;2022-07-29T07:53:39;5.88;;;3.22;;
20830;SDS011;10576;53.556;9.868;2022-07-29T07:56:05;3.88;;;2.78;;
20830;SDS011;10576;53.556;9.868;2022-07-29T07:58:32;4.85;;;2.92;;
20830;SDS011;10576;53.556;9.868;2022-07-29T08:00:59;4.80;;;2.83;;
20830;SDS011;10576;53.556;9.868;2022-07-29T08:03:25;4.67;;;2.70;;
20830;SDS011;10576;53.556;9.868;2022-07-29T08:05:51;5.60;;;3.03;;
20830;SDS011;10576;53.556;9.868;2022-07-29T08:08:16;5.50;;;3.10;;
20830;SDS011;10576;53.556;9.868;2022-07-29T08:10:43;4.82;;;2.60;;
20830;SDS011;10576;53.556;9.868;2022-07-29T08:13:18;3.85;;;2.63;;
20830;SDS011;10576;53.556;9.868;2022-07-29T08:15:45;8.27;;;2.92;;
20830;SDS011;10576;53.556;9.868;2022-07-29T08:18:14;6.35;;;2.83;;
20830;SDS011;10576;53.556;9.868;2022-07-29T08:20:39;7.13;;;3.00;;
20830;SDS011;10576;53.556;9.868;2022-07-29T08:23:06;4.90;;;2.83;;
20830;SDS011;10576;53.556;9.868;2022-07-29T08:25:34;5.68;;;2.95;;
20830;SDS011;10576;53.556;9.868;2022-07-29T08:28:01;5.50;;;3.00;;
20830;SDS011;10576;53.556;9.868;2022-07-29T08:30:27;4.30;;;3.03;;
20830;SDS011;10576;53.556;9.868;2022-07-29T08:32:53;5.82;;;3.00;;
20830;SDS011;10576;53.556;9.868;2022-07-29T08:35:19;5.45;;;3.03;;
20830;SDS011;10576;53.556;9.868;2022-07-29T08:37:46;5.70;;;3.10;;
20830;SDS011;10576;53.556;9.868;2022-07-29T08:40:12;4.40;;;2.90;;
20830;SDS011;10576;53.556;9.868;2022-07-29T08:42:39;3.97;;;2.72;;
20830;SDS011;10576;53.556;9.868;2022-07-29T08:45:05;4.10;;;2.70;;
20830;SDS011;10576;53.556;9.868;2022-07-29T08:47:32;5.28;;;3.00;;
20830;SDS011;10576;53.556;9.868;2022-07-29T08:49:58;4.30;;;2.80;;
20830;SDS011;10576;53.556;9.868;2022-07-29T08:52:25;4.30;;;2.60;;
20830;SDS011;10576;53.556;9.868;2022-07-29T08:54:52;7.55;;;2.70;;
20830;SDS011;10576;53.556;9.868;2022-07-29T08:57:18;5.13;;;2.70;;
20830;SDS011;10576;53.556;9.868;2022-07-29T08:59:44;5.38;;;2.58;;
20830;SDS011;10576;53.556;9.868;2022-07-29T09:02:15;4.50;;;2.70;;
20830;SDS011;10576;53.556;9.868;2022-07-29T09:04:44;3.70;;;2.40;;
20830;SDS011;10576;53.556;9.868;2022-07-29T09:07:12;5.43;;;2.63;;
20830;SDS011;10576;53.556;9.868;2022-07-29T09:09:40;4.90;;;2.40;;
20830;SDS011;10576;53.556;9.868;2022-07-29T09:12:07;4.38;;;2.72;;
20830;SDS011;10576;53.556;9.868;2022-07-29T09:14:36;4.07;;;2.50;;
20830;SDS011;10576;53.556;9.868;2022-07-29T09:17:02;6.13;;;2.65;;
20830;SDS011;10576;53.556;9.868;2022-07-29T09:19:30;4.40;;;2.40;;
20830;SDS011;10576;53.556;9.868;2022-07-29T09:21:59;5.93;;;2.72;;
20830;SDS011;10576;53.556;9.868;2022-07-29T09:27:00;3.30;;;2.50;;
20830;SDS011;10576;53.556;9.868;2022-07-29T09:29:26;4.28;;;2.40;;
20830;SDS011;10576;53.556;9.868;2022-07-29T09:31:53;3.58;;;2.22;;
20830;SDS011;10576;53.556;9.868;2022-07-29T09:34:24;3.95;;;2.25;;
20830;SDS011;10576;53.556;9.868;2022-07-29T09:36:55;3.83;;;2.42;;
20830;SDS011;10576;53.556;9.868;2022-07-29T09:39:41;3.93;;;2.20;;
20830;SDS011;10576;53.556;9.868;2022-07-29T09:42:11;3.22;;;2.30;;
20830;SDS011;10576;53.556;9.868;2022-07-29T09:44:44;2.55;;;2.28;;
20830;SDS011;10576;53.556;9.868;2022-07-29T09:47:14;3.83;;;2.30;;
20830;SDS011;10576;53.556;9.868;2022-07-29T09:52:22;5.57;;;2.67;;
20830;SDS011;10576;53.556;9.868;2022-07-29T09:54:49;3.38;;;2.45;;
20830;SDS011;10576;53.556;9.868;2022-07-29T09:57:22;3.58;;;2.33;;
20830;SDS011;10576;53.556;9.868;2022-07-29T10:00:06;4.07;;;2.55;;
20830;SDS011;10576;53.556;9.868;2022-07-29T10:02:34;5.03;;;2.50;;
20830;SDS011;10576;53.556;9.868;2022-07-29T10:05:02;3.83;;;2.28;;
20830;SDS011;10576;53.556;9.868;2022-07-29T10:07:43;4.82;;;2.47;;
20830;SDS011;10576;53.556;9.868;2022-07-29T10:10:09;4.70;;;2.40;;
20830;SDS011;10576;53.556;9.868;2022-07-29T10:12:47;4.78;;;2.50;;
20830;SDS011;10576;53.556;9.868;2022-07-29T10:15:15;3.63;;;2.30;;
20830;SDS011;10576;53.556;9.868;2022-07-29T10:17:41;3.03;;;2.40;;
20830;SDS011;10576;53.556;9.868;2022-07-29T10:20:08;4.00;;;2.10;;
20830;SDS011;10576;53.556;9.868;2022-07-29T10:22:34;4.55;;;2.50;;
20830;SDS011;10576;53.556;9.868;2022-07-29T10:24:59;4.45;;;2.45;;
20830;SDS011;10576;53.556;9.868;2022-07-29T10:27:26;3.42;;;2.22;;
20830;SDS011;10576;53.556;9.868;2022-07-29T10:29:53;6.10;;;2.40;;
20830;SDS011;10576;53.556;9.868;2022-07-29T10:32:31;4.43;;;2.30;;
20830;SDS011;10576;53.556;9.868;2022-07-29T10:35:17;4.32;;;2.20;;
20830;SDS011;10576;53.556;9.868;2022-07-29T10:40:46;5.35;;;2.28;;
20830;SDS011;10576;53.556;9.868;2022-07-29T10:44:05;5.27;;;3.80;;
20830;SDS011;10576;53.556;9.868;2022-07-29T10:46:34;5.93;;;3.28;;
20830;SDS011;10576;53.556;9.868;2022-07-29T10:51:58;44.83;;;5.22;;
20830;SDS011;10576;53.556;9.868;2022-07-29T11:10:51;2.65;;;2.30;;
20830;SDS011;10576;53.556;9.868;2022-07-29T11:13:44;2.72;;;2.10;;
20830;SDS011;10576;53.556;9.868;2022-07-29T11:16:15;4.30;;;2.30;;
20830;SDS011;10576;53.556;9.868;2022-07-29T11:21:46;4.30;;;1.90;;
20830;SDS011;10576;53.556;9.868;2022-07-29T11:24:30;3.08;;;1.90;;
20830;SDS011;10576;53.556;9.868;2022-07-29T11:27:10;6.07;;;2.28;;
20830;SDS011;10576;53.556;9.868;2022-07-29T11:29:47;3.20;;;2.10;;
20830;SDS011;10576;53.556;9.868;2022-07-29T11:32:14;2.47;;;2.05;;
20830;SDS011;10576;53.556;9.868;2022-07-29T11:34:43;3.43;;;2.00;;
20830;SDS011;10576;53.556;9.868;2022-07-29T11:39:36;3.22;;;2.00;;
20830;SDS011;10576;53.556;9.868;2022-07-29T11:47:30;2.80;;;2.05;;
20830;SDS011;10576;53.556;9.868;2022-07-29T11:49:56;3.83;;;2.10;;
20830;SDS011;10576;53.556;9.868;2022-07-29T11:52:30;5.72;;;2.25;;
20830;SDS011;10576;53.556;9.868;2022-07-29T11:54:58;3.90;;;2.10;;
20830;SDS011;10576;53.556;9.868;2022-07-29T11:57:27;4.93;;;1.90;;
20830;SDS011;10576;53.556;9.868;2022-07-29T11:59:53;3.47;;;1.95;;
20830;SDS011;10576;53.556;9.868;2022-07-29T12:02:22;4.45;;;2.10;;
20830;SDS011;10576;53.556;9.868;2022-07-29T12:04:51;3.55;;;1.85;;
20830;SDS011;10576;53.556;9.868;2022-07-29T12:07:29;3.13;;;2.03;;
20830;SDS011;10576;53.556;9.868;2022-07-29T12:09:56;3.70;;;2.10;;
20830;SDS011;10576;53.556;9.868;2022-07-29T12:12:22;3.65;;;2.05;;
20830;SDS011;10576;53.556;9.868;2022-07-29T12:14:49;4.25;;;2.15;;
20830;SDS011;10576;53.556;9.868;2022-07-29T12:20:10;3.35;;;2.03;;
20830;SDS011;10576;53.556;9.868;2022-07-29T12:22:40;2.90;;;1.88;;
20830;SDS011;10576;53.556;9.868;2022-07-29T12:25:11;4.50;;;2.20;;
20830;SDS011;10576;53.556;9.868;2022-07-29T12:27:40;5.30;;;2.38;;
20830;SDS011;10576;53.556;9.868;2022-07-29T12:30:09;5.15;;;2.15;;
20830;SDS011;10576;53.556;9.868;2022-07-29T12:32:44;5.10;;;2.20;;
20830;SDS011;10576;53.556;9.868;2022-07-29T12:35:12;2.80;;;2.13;;
20830;SDS011;10576;53.556;9.868;2022-07-29T12:37:40;4.00;;;1.90;;
20830;SDS011;10576;53.556;9.868;2022-07-29T12:40:07;3.55;;;2.05;;
20830;SDS011;10576;53.556;9.868;2022-07-29T12:42:35;3.60;;;1.92;;
20830;SDS011;10576;53.556;9.868;2022-07-29T12:45:02;8.90;;;2.20;;
20830;SDS011;10576;53.556;9.868;2022-07-29T12:47:29;3.60;;;2.00;;
20830;SDS011;10576;53.556;9.868;2022-07-29T12:50:10;4.57;;;2.05;;
20830;SDS011;10576;53.556;9.868;2022-07-29T12:52:40;6.10;;;2.17;;
20830;SDS011;10576;53.556;9.868;2022-07-29T12:55:06;4.32;;;2.00;;
20830;SDS011;10576;53.556;9.868;2022-07-29T12:57:32;4.82;;;2.22;;
20830;SDS011;10576;53.556;9.868;2022-07-29T13:00:13;4.53;;;2.30;;
20830;SDS011;10576;53.556;9.868;2022-07-29T13:02:40;6.72;;;2.22;;
20830;SDS011;10576;53.556;9.868;2022-07-29T13:05:07;4.40;;;1.98;;
20830;SDS011;10576;53.556;9.868;2022-07-29T13:07:34;4.75;;;2.08;;
20830;SDS011;10576;53.556;9.868;2022-07-29T13:10:11;2.88;;;2.15;;
20830;SDS011;10576;53.556;9.868;2022-07-29T13:13:23;6.43;;;2.22;;
20830;SDS011;10576;53.556;9.868;2022-07-29T13:15:38;4.30;;;2.00;;
20830;SDS011;10576;53.556;9.868;2022-07-29T13:18:27;3.00;;;1.88;;
20830;SDS011;10576;53.556;9.868;2022-07-29T13:20:54;2.77;;;2.00;;
20830;SDS011;10576;53.556;9.868;2022-07-29T13:23:20;2.75;;;1.98;;
20830;SDS011;10576;53.556;9.868;2022-07-29T13:25:46;3.97;;;2.30;;
20830;SDS011;10576;53.556;9.868;2022-07-29T13:28:11;4.20;;;2.10;;
20830;SDS011;10576;53.556;9.868;2022-07-29T13:30:39;4.07;;;2.05;;
20830;SDS011;10576;53.556;9.868;2022-07-29T13:33:05;4.65;;;2.20;;
20830;SDS011;10576;53.556;9.868;2022-07-29T13:35:31;4.03;;;2.00;;
20830;SDS011;10576;53.556;9.868;2022-07-29T13:37:57;2.60;;;1.90;;
20830;SDS011;10576;53.556;9.868;2022-07-29T13:40:23;4.50;;;1.90;;
20830;SDS011;10576;53.556;9.868;2022-07-29T13:42:48;4.15;;;2.05;;
20830;SDS011;10576;53.556;9.868;2022-07-29T13:45:15;3.70;;;2.15;;
20830;SDS011;10576;53.556;9.868;2022-07-29T13:47:40;4.90;;;2.10;;
20830;SDS011;10576;53.556;9.868;2022-07-29T13:50:07;5.30;;;2.03;;
20830;SDS011;10576;53.556;9.868;2022-07-29T13:52:34;5.70;;;2.07;;
20830;SDS011;10576;53.556;9.868;2022-07-29T13:55:01;3.70;;;2.20;;
20830;SDS011;10576;53.556;9.868;2022-07-29T13:57:28;3.55;;;2.35;;
20830;SDS011;10576;53.556;9.868;2022-07-29T13:59:54;5.10;;;2.37;;
20830;SDS011;10576;53.556;9.868;2022-07-29T14:02:20;2.50;;;2.30;;
20830;SDS011;10576;53.556;9.868;2022-07-29T14:04:46;4.03;;;2.60;;
20830;SDS011;10576;53.556;9.868;2022-07-29T14:07:12;4.27;;;2.37;;
20830;SDS011;10576;53.556;9.868;2022-07-29T14:09:37;4.28;;;2.47;;
20830;SDS011;10576;53.556;9.868;2022-07-29T14:12:03;6.25;;;2.60;;
20830;SDS011;10576;53.556;9.868;2022-07-29T14:14:29;5.13;;;2.47;;
20830;SDS011;10576;53.556;9.868;2022-07-29T14:16:56;6.95;;;2.60;;
20830;SDS011;10576;53.556;9.868;2022-07-29T14:19:22;7.33;;;2.80;;
20830;SDS011;10576;53.556;9.868;2022-07-29T14:21:47;4.30;;;2.63;;
20830;SDS011;10576;53.556;9.868;2022-07-29T14:24:13;5.13;;;2.78;;
20830;SDS011;10576;53.556;9.868;2022-07-29T14:26:39;4.90;;;2.37;;
20830;SDS011;10576;53.556;9.868;2022-07-29T14:29:04;9.00;;;3.10;;
20830;SDS011;10576;53.556;9.868;2022-07-29T14:31:30;4.63;;;2.45;;
20830;SDS011;10576;53.556;9.868;2022-07-29T14:33:56;5.10;;;2.90;;
20830;SDS011;10576;53.556;9.868;2022-07-29T14:36:21;3.30;;;2.60;;
20830;SDS011;10576;53.556;9.868;2022-07-29T14:38:47;4.90;;;2.72;;
20830;SDS011;10576;53.556;9.868;2022-07-29T14:41:13;5.73;;;2.60;;
20830;SDS011;10576;53.556;9.868;2022-07-29T14:43:40;7.55;;;2.80;;
20830;SDS011;10576;53.556;9.868;2022-07-29T14:46:06;8.20;;;2.72;;
20830;SDS011;10576;53.556;9.868;2022-07-29T14:48:32;4.85;;;2.55;;
20830;SDS011;10576;53.556;9.868;2022-07-29T14:50:58;5.50;;;2.60;;
20830;SDS011;10576;53.556;9.868;2022-07-29T14:53:24;4.57;;;2.50;;
20830;SDS011;10576;53.556;9.868;2022-07-29T14:55:49;4.10;;;2.70;;
20830;SDS011;10576;53.556;9.868;2022-07-29T14:58:15;4.70;;;2.45;;
20830;SDS011;10576;53.556;9.868;2022-07-29T15:00:41;5.70;;;2.72;;
20830;SDS011;10576;53.556;9.868;2022-07-29T15:03:07;5.35;;;2.58;;
20830;SDS011;10576;53.556;9.868;2022-07-29T15:05:35;4.15;;;2.67;;
20830;SDS011;10576;53.556;9.868;2022-07-29T15:08:01;6.18;;;2.60;;
20830;SDS011;10576;53.556;9.868;2022-07-29T15:10:27;4.13;;;2.60;;
20830;SDS011;10576;53.556;9.868;2022-07-29T15:12:54;3.80;;;2.58;;
20830;SDS011;10576;53.556;9.868;2022-07-29T15:15:21;2.93;;;2.30;;
20830;SDS011;10576;53.556;9.868;2022-07-29T15:17:47;8.20;;;2.70;;
20830;SDS011;10576;53.556;9.868;2022-07-29T15:20:13;8.30;;;2.40;;
20830;SDS011;10576;53.556;9.868;2022-07-29T15:22:38;8.37;;;2.60;;
20830;SDS011;10576;53.556;9.868;2022-07-29T15:25:06;5.50;;;2.60;;
20830;SDS011;10576;53.556;9.868;2022-07-29T15:27:32;5.90;;;2.40;;
20830;SDS011;10576;53.556;9.868;2022-07-29T15:29:58;6.35;;;2.50;;
20830;SDS011;10576;53.556;9.868;2022-07-29T15:32:23;5.27;;;2.37;;
20830;SDS011;10576;53.556;9.868;2022-07-29T15:34:49;4.90;;;2.70;;
20830;SDS011;10576;53.556;9.868;2022-07-29T15:37:15;6.22;;;2.55;;
20830;SDS011;10576;53.556;9.868;2022-07-29T15:39:40;8.50;;;2.60;;
20830;SDS011;10576;53.556;9.868;2022-07-29T15:42:06;6.03;;;2.70;;
20830;SDS011;10576;53.556;9.868;2022-07-29T15:44:32;4.80;;;2.53;;
20830;SDS011;10576;53.556;9.868;2022-07-29T15:46:58;4.82;;;2.25;;